sensor_id;sensor_type;location;lat;lon;timestamp;pressure;altitude;pressure_sealevel;temperature;humidity
64739;BME280;51175;51.186;0.276;2023-09-30T00:00:23;102198.31;;;19.26;56.79
64739;BME280;51175;51.186;0.276;2023-09-30T00:00:54;102187.88;;;19.25;57.23
64739;BME280;51175;51.186;0.276;2023-09-30T00:01:24;102199.13;;;19.27;57.13
64739;BME280;51175;51.186;0.276;2023-09-30T00:01:55;102190.28;;;19.26;56.84
64739;BME280;51175;51.186;0.276;2023-09-30T00:02:25;102195.63;;;19.26;56.97
64739;BME280;51175;51.186;0.276;2023-09-30T00:02:55;102194.03;;;19.25;57.09
64739;BME280;51175;51.186;0.276;2023-09-30T00:03:26;102194.03;;;19.25;57.15
64739;BME280;51175;51.186;0.276;2023-09-30T00:03:56;102194.03;;;19.25;57.21
64739;BME280;51175;51.186;0.276;2023-09-30T00:04:26;102194.03;;;19.25;57.14
64739;BME280;51175;51.186;0.276;2023-09-30T00:04:57;102202.09;;;19.25;56.92
64739;BME280;51175;51.186;0.276;2023-09-30T00:05:28;102197.81;;;19.24;57.09
64739;BME280;51175;51.186;0.276;2023-09-30T00:05:58;102197.81;;;19.24;56.85
64739;BME280;51175;51.186;0.276;2023-09-30T00:06:28;102201.28;;;19.25;57.25
64739;BME280;51175;51.186;0.276;2023-09-30T00:06:59;102203.94;;;19.25;57.19
64739;BME280;51175;51.186;0.276;2023-09-30T00:07:29;102200.50;;;19.24;57.09
64739;BME280;51175;51.186;0.276;2023-09-30T00:08:00;102200.50;;;19.24;57.19
64739;BME280;51175;51.186;0.276;2023-09-30T00:08:30;102198.88;;;19.23;56.96
64739;BME280;51175;51.186;0.276;2023-09-30T00:09:01;102196.19;;;19.23;56.90
64739;BME280;51175;51.186;0.276;2023-09-30T00:09:32;102195.41;;;19.22;57.16
64739;BME280;51175;51.186;0.276;2023-09-30T00:10:02;102196.19;;;19.23;56.98
64739;BME280;51175;51.186;0.276;2023-09-30T00:10:33;102199.97;;;19.22;57.04
64739;BME280;51175;51.186;0.276;2023-09-30T00:11:05;102193.50;;;19.23;57.01
64739;BME280;51175;51.186;0.276;2023-09-30T00:11:35;102195.41;;;19.22;57.27
64739;BME280;51175;51.186;0.276;2023-09-30T00:12:06;102196.19;;;19.23;57.27
64739;BME280;51175;51.186;0.276;2023-09-30T00:12:37;102194.59;;;19.22;57.30
64739;BME280;51175;51.186;0.276;2023-09-30T00:13:07;102196.47;;;19.21;57.06
64739;BME280;51175;51.186;0.276;2023-09-30T00:13:38;102196.47;;;19.21;57.10
64739;BME280;51175;51.186;0.276;2023-09-30T00:14:08;102193.00;;;19.21;57.17
64739;BME280;51175;51.186;0.276;2023-09-30T00:14:38;102189.53;;;19.20;56.90
64739;BME280;51175;51.186;0.276;2023-09-30T00:15:09;102193.00;;;19.21;57.29
64739;BME280;51175;51.186;0.276;2023-09-30T00:15:40;102184.16;;;19.20;57.18
64739;BME280;51175;51.186;0.276;2023-09-30T00:16:11;102184.97;;;19.21;57.26
64739;BME280;51175;51.186;0.276;2023-09-30T00:16:41;102186.84;;;19.20;57.05
64739;BME280;51175;51.186;0.276;2023-09-30T00:17:11;102194.06;;;19.20;57.02
64739;BME280;51175;51.186;0.276;2023-09-30T00:17:42;102188.72;;;19.20;57.41
64739;BME280;51175;51.186;0.276;2023-09-30T00:18:12;102192.19;;;19.20;56.92
64739;BME280;51175;51.186;0.276;2023-09-30T00:18:43;102187.94;;;19.19;56.97
64739;BME280;51175;51.186;0.276;2023-09-30T00:19:14;102192.47;;;19.19;57.13
64739;BME280;51175;51.186;0.276;2023-09-30T00:19:45;102194.34;;;19.18;57.25
64739;BME280;51175;51.186;0.276;2023-09-30T00:20:15;102189.81;;;19.19;57.34
64739;BME280;51175;51.186;0.276;2023-09-30T00:20:45;102192.47;;;19.19;57.00
64739;BME280;51175;51.186;0.276;2023-09-30T00:21:16;102196.25;;;19.18;57.17
64739;BME280;51175;51.186;0.276;2023-09-30T00:21:46;102197.03;;;19.18;57.43
64739;BME280;51175;51.186;0.276;2023-09-30T00:22:16;102196.25;;;19.18;57.03
64739;BME280;51175;51.186;0.276;2023-09-30T00:22:47;102208.53;;;19.19;57.17
64739;BME280;51175;51.186;0.276;2023-09-30T00:23:17;102198.91;;;19.18;57.10
64739;BME280;51175;51.186;0.276;2023-09-30T00:23:51;102205.06;;;19.18;57.04
64739;BME280;51175;51.186;0.276;2023-09-30T00:24:21;102206.94;;;19.18;56.86
64739;BME280;51175;51.186;0.276;2023-09-30T00:24:52;102205.06;;;19.18;57.22
64739;BME280;51175;51.186;0.276;2023-09-30T00:25:22;102215.00;;;19.18;57.16
64739;BME280;51175;51.186;0.276;2023-09-30T00:25:52;102220.34;;;19.18;57.20
64739;BME280;51175;51.186;0.276;2023-09-30T00:26:23;102212.31;;;19.18;57.19
64739;BME280;51175;51.186;0.276;2023-09-30T00:26:53;102217.66;;;19.18;57.30
64739;BME280;51175;51.186;0.276;2023-09-30T00:27:24;102219.53;;;19.17;56.93
64739;BME280;51175;51.186;0.276;2023-09-30T00:27:54;102215.00;;;19.18;57.05
64739;BME280;51175;51.186;0.276;2023-09-30T00:28:25;102217.94;;;19.16;57.27
64739;BME280;51175;51.186;0.276;2023-09-30T00:28:55;102217.13;;;19.16;57.25
64739;BME280;51175;51.186;0.276;2023-09-30T00:29:25;102216.03;;;19.17;57.14
64739;BME280;51175;51.186;0.276;2023-09-30T00:29:56;102217.94;;;19.16;57.32
64739;BME280;51175;51.186;0.276;2023-09-30T00:30:27;102223.31;;;19.16;57.11
64739;BME280;51175;51.186;0.276;2023-09-30T00:30:57;102220.63;;;19.16;56.92
64739;BME280;51175;51.186;0.276;2023-09-30T00:31:28;102217.13;;;19.16;57.29
64739;BME280;51175;51.186;0.276;2023-09-30T00:31:58;102222.50;;;19.16;56.99
64739;BME280;51175;51.186;0.276;2023-09-30T00:32:29;102217.13;;;19.16;57.29
64739;BME280;51175;51.186;0.276;2023-09-30T00:32:59;102216.31;;;19.15;57.27
64739;BME280;51175;51.186;0.276;2023-09-30T00:33:29;102215.53;;;19.15;57.11
64739;BME280;51175;51.186;0.276;2023-09-30T00:34:00;102214.72;;;19.14;57.10
64739;BME280;51175;51.186;0.276;2023-09-30T00:34:34;102217.41;;;19.14;56.94
64739;BME280;51175;51.186;0.276;2023-09-30T00:35:06;102219.28;;;19.14;57.21
64739;BME280;51175;51.186;0.276;2023-09-30T00:35:41;102222.75;;;19.14;56.96
64739;BME280;51175;51.186;0.276;2023-09-30T00:36:11;102221.94;;;19.14;57.29
64739;BME280;51175;51.186;0.276;2023-09-30T00:36:42;102220.38;;;19.13;57.28
64739;BME280;51175;51.186;0.276;2023-09-30T00:37:12;102223.84;;;19.13;57.40
64739;BME280;51175;51.186;0.276;2023-09-30T00:37:43;102229.22;;;19.13;57.12
64739;BME280;51175;51.186;0.276;2023-09-30T00:38:14;102225.72;;;19.13;57.07
64739;BME280;51175;51.186;0.276;2023-09-30T00:38:44;102220.38;;;19.13;57.08
64739;BME280;51175;51.186;0.276;2023-09-30T00:39:15;102223.03;;;19.13;57.30
64739;BME280;51175;51.186;0.276;2023-09-30T00:39:45;102219.56;;;19.12;57.10
64739;BME280;51175;51.186;0.276;2023-09-30T00:40:16;102222.22;;;19.12;57.04
64739;BME280;51175;51.186;0.276;2023-09-30T00:40:47;102224.13;;;19.12;57.09
64739;BME280;51175;51.186;0.276;2023-09-30T00:41:18;102221.44;;;19.12;57.28
64739;BME280;51175;51.186;0.276;2023-09-30T00:41:48;102221.44;;;19.12;57.09
64739;BME280;51175;51.186;0.276;2023-09-30T00:42:19;102225.19;;;19.10;57.00
64739;BME280;51175;51.186;0.276;2023-09-30T00:42:50;102227.59;;;19.12;57.19
64739;BME280;51175;51.186;0.276;2023-09-30T00:43:21;102225.19;;;19.10;57.40
64739;BME280;51175;51.186;0.276;2023-09-30T00:43:51;102228.13;;;19.09;57.43
64739;BME280;51175;51.186;0.276;2023-09-30T00:44:21;102226.00;;;19.11;57.15
64739;BME280;51175;51.186;0.276;2023-09-30T00:44:52;102229.75;;;19.10;57.18
64739;BME280;51175;51.186;0.276;2023-09-30T00:45:22;102229.75;;;19.10;57.12
64739;BME280;51175;51.186;0.276;2023-09-30T00:46:02;102228.13;;;19.09;57.36
64739;BME280;51175;51.186;0.276;2023-09-30T00:46:37;102232.44;;;19.10;57.30
64739;BME280;51175;51.186;0.276;2023-09-30T00:47:08;102231.63;;;19.09;57.34
64739;BME280;51175;51.186;0.276;2023-09-30T00:47:39;102225.47;;;19.09;57.04
64739;BME280;51175;51.186;0.276;2023-09-30T00:48:10;102230.81;;;19.09;57.16
64739;BME280;51175;51.186;0.276;2023-09-30T00:48:41;102221.16;;;19.08;57.13
64739;BME280;51175;51.186;0.276;2023-09-30T00:49:13;102218.47;;;19.08;57.37
64739;BME280;51175;51.186;0.276;2023-09-30T00:49:44;102216.63;;;19.08;57.05
64739;BME280;51175;51.186;0.276;2023-09-30T00:50:15;102217.66;;;19.07;57.37
64739;BME280;51175;51.186;0.276;2023-09-30T00:50:45;102213.94;;;19.08;57.24
64739;BME280;51175;51.186;0.276;2023-09-30T00:51:16;102212.31;;;19.07;57.42
64739;BME280;51175;51.186;0.276;2023-09-30T00:51:47;102209.63;;;19.07;57.32
64739;BME280;51175;51.186;0.276;2023-09-30T00:52:18;102211.53;;;19.07;57.43
64739;BME280;51175;51.186;0.276;2023-09-30T00:52:48;102212.31;;;19.07;57.12
64739;BME280;51175;51.186;0.276;2023-09-30T00:53:19;102209.63;;;19.07;57.10
64739;BME280;51175;51.186;0.276;2023-09-30T00:53:51;102208.03;;;19.06;57.43
64739;BME280;51175;51.186;0.276;2023-09-30T00:54:24;102204.56;;;19.06;57.43
64739;BME280;51175;51.186;0.276;2023-09-30T00:54:55;102212.59;;;19.06;57.37
64739;BME280;51175;51.186;0.276;2023-09-30T00:55:25;102205.38;;;19.06;57.19
64739;BME280;51175;51.186;0.276;2023-09-30T00:55:56;102208.03;;;19.06;57.46
64739;BME280;51175;51.186;0.276;2023-09-30T00:56:29;102211.81;;;19.05;57.44
64739;BME280;51175;51.186;0.276;2023-09-30T00:57:00;102211.81;;;19.05;57.34
64739;BME280;51175;51.186;0.276;2023-09-30T00:57:32;102214.50;;;19.05;57.05
64739;BME280;51175;51.186;0.276;2023-09-30T00:58:04;102214.50;;;19.05;57.38
64739;BME280;51175;51.186;0.276;2023-09-30T00:58:35;102206.72;;;19.04;57.25
64739;BME280;51175;51.186;0.276;2023-09-30T00:59:06;102205.66;;;19.05;57.07
64739;BME280;51175;51.186;0.276;2023-09-30T00:59:36;102212.88;;;19.04;57.09
64739;BME280;51175;51.186;0.276;2023-09-30T01:00:08;102204.84;;;19.04;57.15
64739;BME280;51175;51.186;0.276;2023-09-30T01:00:42;102210.19;;;19.04;57.20
64739;BME280;51175;51.186;0.276;2023-09-30T01:01:13;102220.13;;;19.04;57.26
64739;BME280;51175;51.186;0.276;2023-09-30T01:01:45;102216.63;;;19.03;57.48
64739;BME280;51175;51.186;0.276;2023-09-30T01:02:17;102213.13;;;19.03;57.24
64739;BME280;51175;51.186;0.276;2023-09-30T01:02:47;102213.13;;;19.03;57.31
64739;BME280;51175;51.186;0.276;2023-09-30T01:03:18;102215.81;;;19.03;57.23
64739;BME280;51175;51.186;0.276;2023-09-30T01:03:49;102215.03;;;19.02;57.22
64739;BME280;51175;51.186;0.276;2023-09-30T01:04:20;102217.72;;;19.02;57.48
64739;BME280;51175;51.186;0.276;2023-09-30T01:04:51;102215.81;;;19.03;57.38
64739;BME280;51175;51.186;0.276;2023-09-30T01:05:22;102220.41;;;19.02;57.33
64739;BME280;51175;51.186;0.276;2023-09-30T01:05:53;102216.63;;;19.03;57.47
64739;BME280;51175;51.186;0.276;2023-09-30T01:06:24;102212.38;;;19.02;57.30
64739;BME280;51175;51.186;0.276;2023-09-30T01:06:54;102215.03;;;19.02;57.45
64739;BME280;51175;51.186;0.276;2023-09-30T01:07:27;102210.47;;;19.03;57.24
64739;BME280;51175;51.186;0.276;2023-09-30T01:07:57;102216.91;;;19.02;57.44
64739;BME280;51175;51.186;0.276;2023-09-30T01:08:28;102214.22;;;19.02;57.48
64739;BME280;51175;51.186;0.276;2023-09-30T01:08:59;102214.22;;;19.02;57.51
64739;BME280;51175;51.186;0.276;2023-09-30T01:09:29;102216.09;;;19.01;57.22
64739;BME280;51175;51.186;0.276;2023-09-30T01:09:59;102214.22;;;19.02;57.38
64739;BME280;51175;51.186;0.276;2023-09-30T01:10:30;102218.78;;;19.01;57.44
64739;BME280;51175;51.186;0.276;2023-09-30T01:11:01;102217.19;;;19.00;57.46
64739;BME280;51175;51.186;0.276;2023-09-30T01:11:31;102216.91;;;19.02;57.48
64739;BME280;51175;51.186;0.276;2023-09-30T01:12:02;102221.44;;;19.01;57.48
64739;BME280;51175;51.186;0.276;2023-09-30T01:12:33;102226.81;;;19.01;57.33
64739;BME280;51175;51.186;0.276;2023-09-30T01:13:04;102220.66;;;19.01;57.25
64739;BME280;51175;51.186;0.276;2023-09-30T01:13:37;102228.69;;;19.01;57.46
64739;BME280;51175;51.186;0.276;2023-09-30T01:14:30;102219.03;;;18.99;57.30
64739;BME280;51175;51.186;0.276;2023-09-30T01:15:00;102214.78;;;18.98;57.52
64739;BME280;51175;51.186;0.276;2023-09-30T01:15:31;102215.56;;;18.99;57.42
64739;BME280;51175;51.186;0.276;2023-09-30T01:16:05;102222.81;;;18.98;57.31
64739;BME280;51175;51.186;0.276;2023-09-30T01:16:36;102228.94;;;18.99;57.25
64739;BME280;51175;51.186;0.276;2023-09-30T01:17:06;102225.47;;;18.98;57.51
64739;BME280;51175;51.186;0.276;2023-09-30T01:17:39;102220.41;;;18.97;57.28
64739;BME280;51175;51.186;0.276;2023-09-30T01:18:09;102226.53;;;18.97;57.24
64739;BME280;51175;51.186;0.276;2023-09-30T01:18:40;102226.53;;;18.97;57.48
64739;BME280;51175;51.186;0.276;2023-09-30T01:19:12;102220.41;;;18.97;57.49
64739;BME280;51175;51.186;0.276;2023-09-30T01:19:43;102229.22;;;18.97;57.44
64739;BME280;51175;51.186;0.276;2023-09-30T01:20:14;102223.88;;;18.97;57.58
64739;BME280;51175;51.186;0.276;2023-09-30T01:20:50;102227.34;;;18.98;57.56
64739;BME280;51175;51.186;0.276;2023-09-30T01:21:23;102225.75;;;18.97;57.23
64739;BME280;51175;51.186;0.276;2023-09-30T01:21:57;102230.31;;;18.96;57.54
64739;BME280;51175;51.186;0.276;2023-09-30T01:22:29;102221.47;;;18.96;57.12
64739;BME280;51175;51.186;0.276;2023-09-30T01:23:01;102232.97;;;18.96;57.40
64739;BME280;51175;51.186;0.276;2023-09-30T01:23:32;102228.72;;;18.95;57.22
64739;BME280;51175;51.186;0.276;2023-09-30T01:24:03;102231.38;;;18.95;57.54
64739;BME280;51175;51.186;0.276;2023-09-30T01:24:40;102234.06;;;18.95;57.64
64739;BME280;51175;51.186;0.276;2023-09-30T01:25:11;102232.44;;;18.94;57.59
64739;BME280;51175;51.186;0.276;2023-09-30T01:25:41;102230.56;;;18.95;57.23
64739;BME280;51175;51.186;0.276;2023-09-30T01:26:14;102233.25;;;18.95;57.51
64739;BME280;51175;51.186;0.276;2023-09-30T01:26:45;102235.13;;;18.94;57.51
64739;BME280;51175;51.186;0.276;2023-09-30T01:27:15;102237.03;;;18.94;57.46
64739;BME280;51175;51.186;0.276;2023-09-30T01:27:48;102245.56;;;18.96;57.55
64739;BME280;51175;51.186;0.276;2023-09-30T01:28:20;102240.47;;;18.94;57.42
64739;BME280;51175;51.186;0.276;2023-09-30T01:28:50;102239.69;;;18.94;57.68
64739;BME280;51175;51.186;0.276;2023-09-30T01:29:21;102235.94;;;18.95;57.50
64739;BME280;51175;51.186;0.276;2023-09-30T01:29:52;102238.63;;;18.95;57.22
64739;BME280;51175;51.186;0.276;2023-09-30T01:30:22;102235.13;;;18.94;57.17
64739;BME280;51175;51.186;0.276;2023-09-30T01:30:53;102232.44;;;18.94;57.02
64739;BME280;51175;51.186;0.276;2023-09-30T01:31:23;102227.09;;;18.94;57.17
64739;BME280;51175;51.186;0.276;2023-09-30T01:31:54;102228.19;;;18.93;57.12
64739;BME280;51175;51.186;0.276;2023-09-30T01:32:24;102229.75;;;18.94;57.46
64739;BME280;51175;51.186;0.276;2023-09-30T01:32:54;102223.91;;;18.92;57.19
64739;BME280;51175;51.186;0.276;2023-09-30T01:33:25;102229.00;;;18.94;57.49
64739;BME280;51175;51.186;0.276;2023-09-30T01:33:55;102223.91;;;18.92;57.39
64739;BME280;51175;51.186;0.276;2023-09-30T01:34:26;102220.16;;;18.93;57.39
64739;BME280;51175;51.186;0.276;2023-09-30T01:34:56;102223.91;;;18.92;57.53
64739;BME280;51175;51.186;0.276;2023-09-30T01:35:27;102223.91;;;18.92;57.28
64739;BME280;51175;51.186;0.276;2023-09-30T01:35:58;102220.41;;;18.92;57.49
64739;BME280;51175;51.186;0.276;2023-09-30T01:36:28;102220.41;;;18.92;57.51
64739;BME280;51175;51.186;0.276;2023-09-30T01:36:59;102214.78;;;18.93;57.29
64739;BME280;51175;51.186;0.276;2023-09-30T01:37:29;102220.41;;;18.92;57.23
64739;BME280;51175;51.186;0.276;2023-09-30T01:38:00;102207.84;;;18.92;57.29
64739;BME280;51175;51.186;0.276;2023-09-30T01:38:30;102219.59;;;18.91;57.15
64739;BME280;51175;51.186;0.276;2023-09-30T01:39:01;102220.41;;;18.92;57.44
64739;BME280;51175;51.186;0.276;2023-09-30T01:39:32;102221.22;;;18.92;57.23
64739;BME280;51175;51.186;0.276;2023-09-30T01:40:04;102216.16;;;18.91;57.45
64739;BME280;51175;51.186;0.276;2023-09-30T01:40:38;102222.28;;;18.91;57.40
64739;BME280;51175;51.186;0.276;2023-09-30T01:41:08;102207.31;;;18.90;57.30
64739;BME280;51175;51.186;0.276;2023-09-30T01:41:39;102218.81;;;18.91;57.21
64739;BME280;51175;51.186;0.276;2023-09-30T01:42:10;102216.16;;;18.91;57.32
64739;BME280;51175;51.186;0.276;2023-09-30T01:42:40;102216.16;;;18.91;57.45
64739;BME280;51175;51.186;0.276;2023-09-30T01:43:11;102217.75;;;18.92;57.15
64739;BME280;51175;51.186;0.276;2023-09-30T01:43:43;102213.47;;;18.91;57.37
64739;BME280;51175;51.186;0.276;2023-09-30T01:44:14;102212.66;;;18.90;57.03
64739;BME280;51175;51.186;0.276;2023-09-30T01:44:44;102218.81;;;18.91;57.17
64739;BME280;51175;51.186;0.276;2023-09-30T01:45:14;102220.69;;;18.90;57.24
64739;BME280;51175;51.186;0.276;2023-09-30T01:45:45;102220.69;;;18.90;57.27
64739;BME280;51175;51.186;0.276;2023-09-30T01:46:15;102213.75;;;18.89;57.00
64739;BME280;51175;51.186;0.276;2023-09-30T01:46:46;102214.53;;;18.90;57.38
64739;BME280;51175;51.186;0.276;2023-09-30T01:47:16;102214.53;;;18.90;57.40
64739;BME280;51175;51.186;0.276;2023-09-30T01:47:46;102203.81;;;18.90;57.06
64739;BME280;51175;51.186;0.276;2023-09-30T01:48:17;102209.44;;;18.88;57.00
64739;BME280;51175;51.186;0.276;2023-09-30T01:48:47;102207.59;;;18.89;57.19
64739;BME280;51175;51.186;0.276;2023-09-30T01:49:18;102202.22;;;18.89;57.31
64739;BME280;51175;51.186;0.276;2023-09-30T01:49:48;102198.75;;;18.88;57.18
64739;BME280;51175;51.186;0.276;2023-09-30T01:50:19;102200.63;;;18.88;57.24
64739;BME280;51175;51.186;0.276;2023-09-30T01:50:50;102209.44;;;18.88;57.33
64739;BME280;51175;51.186;0.276;2023-09-30T01:51:21;102197.97;;;18.88;57.10
64739;BME280;51175;51.186;0.276;2023-09-30T01:51:52;102198.75;;;18.88;57.18
64739;BME280;51175;51.186;0.276;2023-09-30T01:52:22;102204.38;;;18.86;56.90
64739;BME280;51175;51.186;0.276;2023-09-30T01:52:52;102212.13;;;18.88;57.35
64739;BME280;51175;51.186;0.276;2023-09-30T01:53:23;102209.72;;;18.86;56.99
64739;BME280;51175;51.186;0.276;2023-09-30T01:53:53;102209.72;;;18.86;57.04
64739;BME280;51175;51.186;0.276;2023-09-30T01:54:23;102212.41;;;18.86;57.03
64739;BME280;51175;51.186;0.276;2023-09-30T01:54:54;102211.63;;;18.86;57.40
64739;BME280;51175;51.186;0.276;2023-09-30T01:55:24;102207.06;;;18.86;57.03
64739;BME280;51175;51.186;0.276;2023-09-30T01:55:54;102217.25;;;18.84;57.10
64739;BME280;51175;51.186;0.276;2023-09-30T01:56:25;102212.69;;;18.85;57.48
64739;BME280;51175;51.186;0.276;2023-09-30T01:56:55;102210.81;;;18.85;57.36
64739;BME280;51175;51.186;0.276;2023-09-30T01:57:26;102208.94;;;18.86;57.49
64739;BME280;51175;51.186;0.276;2023-09-30T01:57:56;102204.66;;;18.85;57.50
64739;BME280;51175;51.186;0.276;2023-09-30T01:58:27;102196.63;;;18.85;57.24
64739;BME280;51175;51.186;0.276;2023-09-30T01:58:57;102210.00;;;18.85;57.19
64739;BME280;51175;51.186;0.276;2023-09-30T01:59:27;102212.69;;;18.85;57.30
64739;BME280;51175;51.186;0.276;2023-09-30T01:59:59;102212.69;;;18.85;57.29
64739;BME280;51175;51.186;0.276;2023-09-30T02:00:29;102214.56;;;18.84;57.43
64739;BME280;51175;51.186;0.276;2023-09-30T02:01:03;102211.91;;;18.84;57.41
64739;BME280;51175;51.186;0.276;2023-09-30T02:01:34;102219.94;;;18.84;57.46
64739;BME280;51175;51.186;0.276;2023-09-30T02:02:04;102215.63;;;18.83;57.03
64739;BME280;51175;51.186;0.276;2023-09-30T02:02:35;102212.94;;;18.83;57.10
64739;BME280;51175;51.186;0.276;2023-09-30T02:03:06;102220.19;;;18.83;57.42
64739;BME280;51175;51.186;0.276;2023-09-30T02:03:37;102216.44;;;18.84;57.21
64739;BME280;51175;51.186;0.276;2023-09-30T02:04:08;102211.09;;;18.84;57.44
64739;BME280;51175;51.186;0.276;2023-09-30T02:04:38;102210.28;;;18.83;57.51
64739;BME280;51175;51.186;0.276;2023-09-30T02:05:08;102204.91;;;18.83;57.33
64739;BME280;51175;51.186;0.276;2023-09-30T02:05:39;102206.81;;;18.83;57.14
64739;BME280;51175;51.186;0.276;2023-09-30T02:06:10;102202.53;;;18.82;57.12
64739;BME280;51175;51.186;0.276;2023-09-30T02:06:41;102199.84;;;18.82;57.26
64739;BME280;51175;51.186;0.276;2023-09-30T02:07:11;102201.75;;;18.81;57.42
64739;BME280;51175;51.186;0.276;2023-09-30T02:07:42;102201.75;;;18.81;57.13
64739;BME280;51175;51.186;0.276;2023-09-30T02:08:13;102203.31;;;18.82;57.11
64739;BME280;51175;51.186;0.276;2023-09-30T02:08:43;102203.59;;;18.81;57.54
64739;BME280;51175;51.186;0.276;2023-09-30T02:09:14;102204.41;;;18.81;57.14
64739;BME280;51175;51.186;0.276;2023-09-30T02:09:45;102204.41;;;18.81;57.14
64739;BME280;51175;51.186;0.276;2023-09-30T02:10:16;102204.41;;;18.81;57.26
64739;BME280;51175;51.186;0.276;2023-09-30T02:10:47;102211.63;;;18.81;57.25
64739;BME280;51175;51.186;0.276;2023-09-30T02:11:17;102204.69;;;18.80;57.11
64739;BME280;51175;51.186;0.276;2023-09-30T02:11:48;102207.38;;;18.80;57.13
64739;BME280;51175;51.186;0.276;2023-09-30T02:12:18;102205.47;;;18.80;57.16
64739;BME280;51175;51.186;0.276;2023-09-30T02:12:48;102211.91;;;18.79;57.21
64739;BME280;51175;51.186;0.276;2023-09-30T02:13:19;102209.22;;;18.79;57.24
64739;BME280;51175;51.186;0.276;2023-09-30T02:13:50;102202.00;;;18.80;57.17
64739;BME280;51175;51.186;0.276;2023-09-30T02:14:20;102201.19;;;18.79;57.56
64739;BME280;51175;51.186;0.276;2023-09-30T02:14:50;102209.22;;;18.79;57.51
64739;BME280;51175;51.186;0.276;2023-09-30T02:15:21;102203.88;;;18.79;57.40
64739;BME280;51175;51.186;0.276;2023-09-30T02:15:51;102208.41;;;18.79;57.56
64739;BME280;51175;51.186;0.276;2023-09-30T02:16:22;102206.56;;;18.79;57.35
64739;BME280;51175;51.186;0.276;2023-09-30T02:16:53;102202.28;;;18.78;57.49
64739;BME280;51175;51.186;0.276;2023-09-30T02:17:23;102203.88;;;18.79;57.55
64739;BME280;51175;51.186;0.276;2023-09-30T02:17:53;102208.41;;;18.79;57.29
64739;BME280;51175;51.186;0.276;2023-09-30T02:18:24;102213.00;;;18.78;57.49
64739;BME280;51175;51.186;0.276;2023-09-30T02:18:54;102213.00;;;18.78;57.33
64739;BME280;51175;51.186;0.276;2023-09-30T02:19:25;102211.38;;;18.77;57.36
64739;BME280;51175;51.186;0.276;2023-09-30T02:19:57;102216.72;;;18.77;57.49
64739;BME280;51175;51.186;0.276;2023-09-30T02:20:28;102211.38;;;18.77;57.05
64739;BME280;51175;51.186;0.276;2023-09-30T02:21:00;102208.69;;;18.77;57.40
64739;BME280;51175;51.186;0.276;2023-09-30T02:21:30;102203.34;;;18.77;57.19
64739;BME280;51175;51.186;0.276;2023-09-30T02:22:01;102200.66;;;18.77;57.23
64739;BME280;51175;51.186;0.276;2023-09-30T02:22:32;102197.19;;;18.77;57.51
64739;BME280;51175;51.186;0.276;2023-09-30T02:23:03;102200.66;;;18.77;57.41
64739;BME280;51175;51.186;0.276;2023-09-30T02:23:36;102195.31;;;18.77;57.39
64739;BME280;51175;51.186;0.276;2023-09-30T02:24:06;102207.09;;;18.76;57.18
64739;BME280;51175;51.186;0.276;2023-09-30T02:24:37;102199.88;;;18.77;57.38
64739;BME280;51175;51.186;0.276;2023-09-30T02:25:10;102200.94;;;18.76;57.27
64739;BME280;51175;51.186;0.276;2023-09-30T02:25:42;102203.63;;;18.76;57.12
64739;BME280;51175;51.186;0.276;2023-09-30T02:26:16;102202.03;;;18.74;57.41
64739;BME280;51175;51.186;0.276;2023-09-30T02:26:47;102203.88;;;18.74;57.15
64739;BME280;51175;51.186;0.276;2023-09-30T02:27:17;102201.22;;;18.74;57.07
64739;BME280;51175;51.186;0.276;2023-09-30T02:27:49;102208.47;;;18.73;57.27
64739;BME280;51175;51.186;0.276;2023-09-30T02:28:20;102209.25;;;18.74;57.26
64739;BME280;51175;51.186;0.276;2023-09-30T02:28:51;102203.88;;;18.74;57.17
64739;BME280;51175;51.186;0.276;2023-09-30T02:29:21;102205.78;;;18.73;57.43
64739;BME280;51175;51.186;0.276;2023-09-30T02:29:51;102211.13;;;18.73;57.08
64739;BME280;51175;51.186;0.276;2023-09-30T02:30:22;102202.28;;;18.73;57.33
64739;BME280;51175;51.186;0.276;2023-09-30T02:30:52;102207.66;;;18.73;57.36
64739;BME280;51175;51.186;0.276;2023-09-30T02:31:23;102204.16;;;18.72;57.21
64739;BME280;51175;51.186;0.276;2023-09-30T02:31:54;102206.06;;;18.72;57.10
64739;BME280;51175;51.186;0.276;2023-09-30T02:32:25;102206.84;;;18.72;57.23
64739;BME280;51175;51.186;0.276;2023-09-30T02:32:55;102200.69;;;18.72;57.34
64739;BME280;51175;51.186;0.276;2023-09-30T02:33:26;102203.38;;;18.72;57.20
64739;BME280;51175;51.186;0.276;2023-09-30T02:33:57;102199.09;;;18.71;57.10
64739;BME280;51175;51.186;0.276;2023-09-30T02:34:30;102199.91;;;18.71;57.17
64739;BME280;51175;51.186;0.276;2023-09-30T02:35:00;102205.25;;;18.71;57.44
64739;BME280;51175;51.186;0.276;2023-09-30T02:35:31;102202.84;;;18.70;57.33
64739;BME280;51175;51.186;0.276;2023-09-30T02:36:01;102200.16;;;18.70;57.29
64739;BME280;51175;51.186;0.276;2023-09-30T02:36:33;102194.00;;;18.69;57.29
64739;BME280;51175;51.186;0.276;2023-09-30T02:37:03;102195.91;;;18.69;57.16
64739;BME280;51175;51.186;0.276;2023-09-30T02:37:34;102195.63;;;18.70;57.10
64739;BME280;51175;51.186;0.276;2023-09-30T02:38:07;102195.91;;;18.69;57.13
64739;BME280;51175;51.186;0.276;2023-09-30T02:38:38;102196.69;;;18.69;57.12
64739;BME280;51175;51.186;0.276;2023-09-30T02:39:08;102197.50;;;18.70;57.12
64739;BME280;51175;51.186;0.276;2023-09-30T02:39:39;102198.56;;;18.69;57.10
64739;BME280;51175;51.186;0.276;2023-09-30T02:40:10;102195.09;;;18.68;57.09
64739;BME280;51175;51.186;0.276;2023-09-30T02:40:41;102193.22;;;18.69;57.36
64739;BME280;51175;51.186;0.276;2023-09-30T02:41:16;102191.59;;;18.68;57.01
64739;BME280;51175;51.186;0.276;2023-09-30T02:41:47;102190.81;;;18.67;57.24
64739;BME280;51175;51.186;0.276;2023-09-30T02:42:20;102192.69;;;18.67;57.20